CFG9FJ EDDF-LIPZ
Flight info
| Callsign | CFG9FJ |
|---|---|
| Flight time | 1h 1m |
| Altitude | 31000 |
| Route | ANEKI3F/25C ANEKI Y163 PABLA Z721 UTABA/N0444F290 M738 ADOSA L612 ALBET |
| Aircraft | A320/M-SDE3FGHIRWY/LB1 |
Departure
| Time | 2026-05-04 12:07 |
|---|---|
| Airport | Frankfurt Main Airport (EDDF) |
Arrival
| Time | 2026-05-04 13:08 |
|---|---|
| Airport | Venice Marco Polo Airport (LIPZ) |
| Time | Latitude | Longitude | Altitude | Speed | Heading |
|---|---|---|---|---|---|
| 2026-05-04 11:33 | 50.04809 | 8.58421 | 355 ft | 0 kts | 160° |
| 2026-05-04 11:55 | 50.04809 | 8.58420 | 356 ft | 0 kts | 160° |
| 2026-05-04 11:56 | 50.04813 | 8.58419 | 356 ft | 2 kts | 160° |
| 2026-05-04 11:56 | 50.04826 | 8.58410 | 357 ft | 2 kts | 160° |
| 2026-05-04 11:57 | 50.04836 | 8.58405 | 357 ft | 1 kts | 160° |
| 2026-05-04 11:57 | 50.04849 | 8.58396 | 357 ft | 2 kts | 142° |
| 2026-05-04 11:57 | 50.04859 | 8.58379 | 356 ft | 2 kts | 127° |
| 2026-05-04 11:57 | 50.04867 | 8.58359 | 356 ft | 2 kts | 110° |
| 2026-05-04 11:58 | 50.04870 | 8.58337 | 356 ft | 2 kts | 94° |
| 2026-05-04 11:58 | 50.04870 | 8.58314 | 356 ft | 2 kts | 77° |
| 2026-05-04 11:58 | 50.04867 | 8.58302 | 356 ft | 1 kts | 67° |
| 2026-05-04 11:58 | 50.04866 | 8.58296 | 356 ft | 0 kts | 69° |
| 2026-05-04 11:59 | 50.04866 | 8.58297 | 356 ft | 0 kts | 69° |
| 2026-05-04 12:02 | 50.04847 | 8.58713 | 356 ft | 12 kts | 159° |
| 2026-05-04 12:03 | 50.04758 | 8.58762 | 356 ft | 14 kts | 166° |
| 2026-05-04 12:03 | 50.04653 | 8.58761 | 356 ft | 15 kts | 188° |
| 2026-05-04 12:03 | 50.04556 | 8.58676 | 355 ft | 16 kts | 221° |
| 2026-05-04 12:03 | 50.04478 | 8.58539 | 355 ft | 15 kts | 248° |
| 2026-05-04 12:04 | 50.04469 | 8.58500 | 355 ft | 0 kts | 250° |
| 2026-05-04 12:04 | 50.04469 | 8.58499 | 355 ft | 0 kts | 250° |
| 2026-05-04 12:06 | 50.04438 | 8.58372 | 355 ft | 45 kts | 250° |
| 2026-05-04 12:06 | 50.04233 | 8.57531 | 356 ft | 119 kts | 250° |
| 2026-05-04 12:06 | 50.03871 | 8.56015 | 433 ft | 171 kts | 249° |
| 2026-05-04 12:07 | 50.03462 | 8.54313 | 1142 ft | 170 kts | 249° |
| 2026-05-04 12:07 | 50.03061 | 8.52624 | 1919 ft | 171 kts | 249° |
| 2026-05-04 12:07 | 50.02567 | 8.50938 | 2546 ft | 179 kts | 231° |
| 2026-05-04 12:07 | 50.01500 | 8.49818 | 3066 ft | 194 kts | 198° |
| 2026-05-04 12:08 | 50.00191 | 8.49247 | 3593 ft | 206 kts | 195° |
| 2026-05-04 12:08 | 49.98689 | 8.49204 | 3967 ft | 230 kts | 162° |
| 2026-05-04 12:08 | 49.97372 | 8.50517 | 4850 ft | 229 kts | 140° |
| 2026-05-04 12:08 | 49.96153 | 8.52053 | 5741 ft | 227 kts | 152° |
| 2026-05-04 12:09 | 49.94673 | 8.52749 | 6514 ft | 228 kts | 175° |
| 2026-05-04 12:09 | 49.93092 | 8.52959 | 7319 ft | 230 kts | 177° |
| 2026-05-04 12:09 | 49.91498 | 8.53131 | 8113 ft | 232 kts | 178° |
| 2026-05-04 12:09 | 49.89893 | 8.53277 | 8906 ft | 234 kts | 179° |
| 2026-05-04 12:10 | 49.88279 | 8.53408 | 9692 ft | 235 kts | 179° |
| 2026-05-04 12:10 | 49.86652 | 8.53530 | 10410 ft | 240 kts | 179° |
| 2026-05-04 12:10 | 49.84956 | 8.53649 | 10853 ft | 256 kts | 179° |
| 2026-05-04 12:10 | 49.83116 | 8.53776 | 11262 ft | 273 kts | 179° |
| 2026-05-04 12:11 | 49.81158 | 8.53914 | 11643 ft | 291 kts | 179° |
| 2026-05-04 12:11 | 49.79079 | 8.54031 | 11995 ft | 309 kts | 181° |
| 2026-05-04 12:11 | 49.76880 | 8.53941 | 12358 ft | 324 kts | 185° |
| 2026-05-04 12:11 | 49.74635 | 8.53656 | 12980 ft | 329 kts | 186° |
| 2026-05-04 12:12 | 49.72344 | 8.53356 | 13702 ft | 332 kts | 186° |
| 2026-05-04 12:12 | 49.70017 | 8.53049 | 14391 ft | 335 kts | 186° |
| 2026-05-04 12:12 | 49.67711 | 8.52745 | 15023 ft | 339 kts | 186° |
| 2026-05-04 12:12 | 49.65358 | 8.52435 | 15643 ft | 342 kts | 186° |
| 2026-05-04 12:13 | 49.62958 | 8.52119 | 16260 ft | 346 kts | 186° |
| 2026-05-04 12:14 | 49.45732 | 8.49853 | 20267 ft | 365 kts | 187° |
| 2026-05-04 12:15 | 49.43149 | 8.49514 | 20010 ft | 390 kts | 187° |
| 2026-05-04 12:15 | 49.40300 | 8.49134 | 18815 ft | 433 kts | 186° |
| 2026-05-04 12:15 | 49.37246 | 8.48731 | 18180 ft | 448 kts | 186° |
| 2026-05-04 12:15 | 49.34193 | 8.48335 | 17555 ft | 438 kts | 186° |
| 2026-05-04 12:16 | 49.31200 | 8.47954 | 16635 ft | 436 kts | 186° |
| 2026-05-04 12:16 | 49.28264 | 8.47590 | 16674 ft | 409 kts | 186° |
| 2026-05-04 12:16 | 49.25530 | 8.47255 | 16868 ft | 383 kts | 186° |
| 2026-05-04 12:16 | 49.22881 | 8.46903 | 16368 ft | 378 kts | 186° |
| 2026-05-04 12:17 | 49.20327 | 8.46559 | 16313 ft | 362 kts | 186° |
| 2026-05-04 12:17 | 49.17861 | 8.46231 | 16509 ft | 350 kts | 186° |
| 2026-05-04 12:17 | 49.15444 | 8.45913 | 16785 ft | 349 kts | 186° |
| 2026-05-04 12:17 | 49.13046 | 8.45601 | 17079 ft | 350 kts | 186° |
| 2026-05-04 12:18 | 49.10615 | 8.45286 | 17457 ft | 351 kts | 187° |
| 2026-05-04 12:18 | 49.08174 | 8.44950 | 17837 ft | 353 kts | 188° |
| 2026-05-04 12:18 | 49.05761 | 8.44432 | 18214 ft | 355 kts | 191° |
| 2026-05-04 12:18 | 49.03347 | 8.43679 | 18593 ft | 356 kts | 194° |
| 2026-05-04 12:19 | 49.00931 | 8.42836 | 18971 ft | 358 kts | 194° |
| 2026-05-04 12:19 | 48.98504 | 8.41991 | 19372 ft | 359 kts | 194° |
| 2026-05-04 12:19 | 48.96065 | 8.41145 | 19765 ft | 361 kts | 194° |
| 2026-05-04 12:19 | 48.93612 | 8.40293 | 20148 ft | 363 kts | 194° |
| 2026-05-04 12:20 | 48.91152 | 8.39440 | 20536 ft | 365 kts | 194° |
| 2026-05-04 12:20 | 48.88686 | 8.38585 | 20928 ft | 368 kts | 194° |
| 2026-05-04 12:20 | 48.86142 | 8.37702 | 21453 ft | 371 kts | 194° |
| 2026-05-04 12:20 | 48.83658 | 8.36873 | 21986 ft | 373 kts | 191° |
| 2026-05-04 12:21 | 48.81040 | 8.36846 | 22434 ft | 379 kts | 173° |
| 2026-05-04 12:21 | 48.78537 | 8.38110 | 22901 ft | 387 kts | 155° |
| 2026-05-04 12:21 | 48.76356 | 8.40569 | 23355 ft | 396 kts | 137° |
| 2026-05-04 12:21 | 48.74657 | 8.43881 | 23839 ft | 402 kts | 129° |
| 2026-05-04 12:22 | 48.73049 | 8.47325 | 24276 ft | 405 kts | 129° |
| 2026-05-04 12:22 | 48.71416 | 8.50820 | 24685 ft | 408 kts | 129° |
| 2026-05-04 12:22 | 48.69787 | 8.54288 | 25105 ft | 411 kts | 129° |
| 2026-05-04 12:22 | 48.68127 | 8.57807 | 25534 ft | 413 kts | 129° |
| 2026-05-04 12:23 | 48.66456 | 8.61335 | 25943 ft | 415 kts | 129° |
| 2026-05-04 12:23 | 48.64758 | 8.64911 | 26329 ft | 418 kts | 129° |
| 2026-05-04 12:23 | 48.63070 | 8.68453 | 26704 ft | 421 kts | 129° |
| 2026-05-04 12:23 | 48.61362 | 8.72035 | 27070 ft | 423 kts | 129° |
| 2026-05-04 12:24 | 48.59641 | 8.75636 | 27428 ft | 426 kts | 130° |
| 2026-05-04 12:24 | 48.57901 | 8.79273 | 27838 ft | 427 kts | 129° |
| 2026-05-04 12:24 | 48.56171 | 8.82884 | 28220 ft | 428 kts | 130° |
| 2026-05-04 12:24 | 48.54419 | 8.86539 | 28576 ft | 430 kts | 130° |
| 2026-05-04 12:25 | 48.52669 | 8.90175 | 28895 ft | 432 kts | 130° |
| 2026-05-04 12:25 | 48.50905 | 8.93841 | 28943 ft | 434 kts | 130° |
| 2026-05-04 12:25 | 48.47352 | 9.01209 | 28954 ft | 435 kts | 130° |
| 2026-05-04 12:26 | 48.43801 | 9.08557 | 28969 ft | 435 kts | 130° |
| 2026-05-04 12:26 | 48.40255 | 9.15876 | 28979 ft | 435 kts | 130° |
| 2026-05-04 12:27 | 48.36682 | 9.23235 | 28982 ft | 434 kts | 130° |
| 2026-05-04 12:27 | 48.33139 | 9.30509 | 28982 ft | 435 kts | 130° |
| 2026-05-04 12:28 | 48.29558 | 9.37838 | 28984 ft | 435 kts | 130° |
| 2026-05-04 12:28 | 48.25588 | 9.44518 | 28981 ft | 426 kts | 146° |
| 2026-05-04 12:29 | 48.23121 | 9.46844 | 28979 ft | 420 kts | 157° |
| 2026-05-04 12:29 | 48.20415 | 9.48414 | 28982 ft | 416 kts | 166° |
| 2026-05-04 12:29 | 48.14846 | 9.50798 | 28978 ft | 415 kts | 167° |
| 2026-05-04 12:30 | 48.09337 | 9.53152 | 28977 ft | 415 kts | 167° |
| 2026-05-04 12:30 | 48.03807 | 9.55807 | 28975 ft | 418 kts | 161° |
| 2026-05-04 12:31 | 47.98682 | 9.59856 | 28976 ft | 424 kts | 150° |
| 2026-05-04 12:31 | 47.93882 | 9.64973 | 28978 ft | 425 kts | 147° |
| 2026-05-04 12:32 | 47.86687 | 9.72774 | 28978 ft | 425 kts | 148° |
| 2026-05-04 12:33 | 47.81915 | 9.77914 | 28983 ft | 425 kts | 148° |
| 2026-05-04 12:33 | 47.77138 | 9.83042 | 28991 ft | 426 kts | 148° |
| 2026-05-04 12:34 | 47.72323 | 9.88199 | 28995 ft | 426 kts | 148° |
| 2026-05-04 12:34 | 47.67517 | 9.93337 | 28996 ft | 426 kts | 148° |
| 2026-05-04 12:35 | 47.62717 | 9.98452 | 29017 ft | 426 kts | 148° |
| 2026-05-04 12:35 | 47.57931 | 10.03543 | 29027 ft | 426 kts | 148° |
| 2026-05-04 12:36 | 47.53097 | 10.08675 | 29028 ft | 427 kts | 148° |
| 2026-05-04 12:36 | 47.48284 | 10.13770 | 29034 ft | 427 kts | 148° |
| 2026-05-04 12:37 | 47.43451 | 10.18776 | 29056 ft | 426 kts | 150° |
| 2026-05-04 12:37 | 47.38435 | 10.23375 | 29052 ft | 426 kts | 151° |
| 2026-05-04 12:38 | 47.33394 | 10.27981 | 29078 ft | 426 kts | 151° |
| 2026-05-04 12:38 | 47.28361 | 10.32533 | 29088 ft | 426 kts | 152° |
| 2026-05-04 12:39 | 47.23319 | 10.37068 | 29101 ft | 426 kts | 151° |
| 2026-05-04 12:39 | 47.18268 | 10.41604 | 29100 ft | 427 kts | 151° |
| 2026-05-04 12:40 | 47.13209 | 10.46138 | 29110 ft | 427 kts | 151° |
| 2026-05-04 12:40 | 47.08104 | 10.50596 | 29124 ft | 426 kts | 154° |
| 2026-05-04 12:41 | 47.02748 | 10.54113 | 29126 ft | 422 kts | 162° |
| 2026-05-04 12:41 | 46.97149 | 10.56726 | 29125 ft | 421 kts | 165° |
| 2026-05-04 12:42 | 46.91586 | 10.59234 | 29138 ft | 421 kts | 165° |
| 2026-05-04 12:42 | 46.85972 | 10.61769 | 29138 ft | 422 kts | 165° |
| 2026-05-04 12:43 | 46.80356 | 10.64298 | 29144 ft | 422 kts | 165° |
| 2026-05-04 12:43 | 46.74746 | 10.66817 | 29145 ft | 423 kts | 165° |
| 2026-05-04 12:44 | 46.69060 | 10.68954 | 29144 ft | 421 kts | 170° |
| 2026-05-04 12:44 | 46.63392 | 10.70809 | 29140 ft | 421 kts | 170° |
| 2026-05-04 12:45 | 46.57658 | 10.72681 | 29135 ft | 421 kts | 169° |
| 2026-05-04 12:45 | 46.51973 | 10.74538 | 29131 ft | 421 kts | 170° |
| 2026-05-04 12:46 | 46.46237 | 10.76405 | 29129 ft | 421 kts | 170° |
| 2026-05-04 12:46 | 46.40529 | 10.78260 | 29131 ft | 421 kts | 169° |
| 2026-05-04 12:47 | 46.34840 | 10.80105 | 29133 ft | 422 kts | 169° |
| 2026-05-04 12:47 | 46.29065 | 10.81974 | 29133 ft | 422 kts | 169° |
| 2026-05-04 12:48 | 46.23365 | 10.83814 | 29133 ft | 422 kts | 169° |
| 2026-05-04 12:48 | 46.17634 | 10.85656 | 29131 ft | 422 kts | 169° |
| 2026-05-04 12:49 | 46.11909 | 10.87493 | 29130 ft | 423 kts | 169° |
| 2026-05-04 12:49 | 46.06180 | 10.89331 | 29058 ft | 420 kts | 169° |
| 2026-05-04 12:49 | 46.03331 | 10.90244 | 28366 ft | 422 kts | 169° |
| 2026-05-04 12:50 | 46.00465 | 10.91160 | 27131 ft | 432 kts | 169° |
| 2026-05-04 12:50 | 45.97516 | 10.92102 | 26209 ft | 433 kts | 169° |
| 2026-05-04 12:50 | 45.94604 | 10.93034 | 25702 ft | 425 kts | 169° |
| 2026-05-04 12:50 | 45.91773 | 10.93940 | 25195 ft | 418 kts | 169° |
| 2026-05-04 12:51 | 45.89022 | 10.94819 | 24690 ft | 411 kts | 169° |
| 2026-05-04 12:51 | 45.86247 | 10.95703 | 24182 ft | 405 kts | 169° |
| 2026-05-04 12:51 | 45.83516 | 10.96572 | 23678 ft | 400 kts | 169° |
| 2026-05-04 12:51 | 45.80811 | 10.97432 | 23180 ft | 394 kts | 169° |
| 2026-05-04 12:52 | 45.78165 | 10.98271 | 22699 ft | 390 kts | 169° |
| 2026-05-04 12:52 | 45.75551 | 10.99100 | 22224 ft | 385 kts | 169° |
| 2026-05-04 12:52 | 45.72947 | 10.99925 | 21742 ft | 381 kts | 169° |
| 2026-05-04 12:52 | 45.70379 | 11.00740 | 21265 ft | 378 kts | 169° |
| 2026-05-04 12:53 | 45.67810 | 11.01554 | 20787 ft | 374 kts | 168° |
| 2026-05-04 12:53 | 45.65399 | 11.02807 | 20281 ft | 374 kts | 152° |
| 2026-05-04 12:53 | 45.63366 | 11.05122 | 19808 ft | 375 kts | 133° |
| 2026-05-04 12:53 | 45.61859 | 11.08135 | 19349 ft | 374 kts | 124° |
| 2026-05-04 12:54 | 45.60485 | 11.11273 | 18866 ft | 371 kts | 124° |
| 2026-05-04 12:54 | 45.59132 | 11.14363 | 18411 ft | 368 kts | 124° |
| 2026-05-04 12:54 | 45.57778 | 11.17412 | 17958 ft | 366 kts | 124° |
| 2026-05-04 12:54 | 45.56410 | 11.20467 | 17488 ft | 363 kts | 124° |
| 2026-05-04 12:55 | 45.55035 | 11.23527 | 17013 ft | 361 kts | 124° |
| 2026-05-04 12:55 | 45.53699 | 11.26494 | 16539 ft | 359 kts | 125° |
| 2026-05-04 12:55 | 45.52358 | 11.29469 | 16078 ft | 357 kts | 125° |
| 2026-05-04 12:55 | 45.51018 | 11.32439 | 15612 ft | 355 kts | 124° |
| 2026-05-04 12:56 | 45.49672 | 11.35421 | 15140 ft | 354 kts | 124° |
| 2026-05-04 12:56 | 45.48350 | 11.38345 | 14658 ft | 352 kts | 125° |
| 2026-05-04 12:56 | 45.47040 | 11.41241 | 14196 ft | 349 kts | 125° |
| 2026-05-04 12:56 | 45.45722 | 11.44147 | 13731 ft | 347 kts | 125° |
| 2026-05-04 12:57 | 45.44418 | 11.47019 | 13281 ft | 344 kts | 125° |
| 2026-05-04 12:57 | 45.43113 | 11.49805 | 13050 ft | 333 kts | 128° |
| 2026-05-04 12:57 | 45.41730 | 11.52336 | 13026 ft | 319 kts | 132° |
| 2026-05-04 12:57 | 45.40271 | 11.54687 | 13031 ft | 319 kts | 134° |
| 2026-05-04 12:58 | 45.38785 | 11.57037 | 13051 ft | 319 kts | 134° |
| 2026-05-04 12:58 | 45.37292 | 11.59396 | 12976 ft | 320 kts | 134° |
| 2026-05-04 12:58 | 45.35791 | 11.61774 | 12506 ft | 320 kts | 132° |
| 2026-05-04 12:58 | 45.34640 | 11.64441 | 12121 ft | 320 kts | 110° |
| 2026-05-04 12:59 | 45.34320 | 11.67560 | 11755 ft | 319 kts | 90° |
| 2026-05-04 12:59 | 45.34472 | 11.70675 | 11424 ft | 315 kts | 87° |
| 2026-05-04 12:59 | 45.34646 | 11.73723 | 11089 ft | 310 kts | 87° |
| 2026-05-04 12:59 | 45.34806 | 11.76737 | 10748 ft | 305 kts | 88° |
| 2026-05-04 13:00 | 45.34953 | 11.79720 | 10444 ft | 299 kts | 88° |
| 2026-05-04 13:00 | 45.34996 | 11.82616 | 10165 ft | 291 kts | 100° |
| 2026-05-04 13:00 | 45.34285 | 11.85250 | 9871 ft | 281 kts | 127° |
| 2026-05-04 13:00 | 45.33034 | 11.87330 | 9578 ft | 276 kts | 134° |
| 2026-05-04 13:01 | 45.31755 | 11.89352 | 9107 ft | 279 kts | 133° |
| 2026-05-04 13:01 | 45.30465 | 11.91402 | 8621 ft | 282 kts | 133° |
| 2026-05-04 13:01 | 45.29143 | 11.93502 | 8127 ft | 285 kts | 133° |
| 2026-05-04 13:01 | 45.27824 | 11.95592 | 7650 ft | 287 kts | 133° |
| 2026-05-04 13:02 | 45.26499 | 11.97748 | 7156 ft | 290 kts | 128° |
| 2026-05-04 13:02 | 45.25713 | 12.00358 | 6641 ft | 295 kts | 97° |
| 2026-05-04 13:02 | 45.26011 | 12.03214 | 6163 ft | 298 kts | 66° |
| 2026-05-04 13:02 | 45.27098 | 12.05693 | 5757 ft | 297 kts | 52° |
| 2026-05-04 13:03 | 45.28465 | 12.07812 | 5345 ft | 285 kts | 43° |
| 2026-05-04 13:03 | 45.29949 | 12.09556 | 4849 ft | 276 kts | 37° |
| 2026-05-04 13:03 | 45.31458 | 12.11166 | 4397 ft | 266 kts | 38° |
| 2026-05-04 13:03 | 45.32887 | 12.12778 | 3913 ft | 257 kts | 40° |
| 2026-05-04 13:04 | 45.34215 | 12.14373 | 3544 ft | 249 kts | 41° |
| 2026-05-04 13:04 | 45.35500 | 12.15975 | 3267 ft | 245 kts | 42° |
| 2026-05-04 13:04 | 45.36765 | 12.17576 | 3051 ft | 239 kts | 42° |
| 2026-05-04 13:04 | 45.37987 | 12.19091 | 2881 ft | 233 kts | 42° |
| 2026-05-04 13:05 | 45.39209 | 12.20615 | 2591 ft | 233 kts | 42° |
| 2026-05-04 13:05 | 45.40416 | 12.22157 | 2291 ft | 231 kts | 43° |
| 2026-05-04 13:05 | 45.41563 | 12.23638 | 1992 ft | 219 kts | 43° |
| 2026-05-04 13:05 | 45.42660 | 12.25059 | 1767 ft | 205 kts | 43° |
| 2026-05-04 13:06 | 45.43686 | 12.26384 | 1545 ft | 190 kts | 43° |
| 2026-05-04 13:06 | 45.44629 | 12.27603 | 1269 ft | 179 kts | 43° |
| 2026-05-04 13:06 | 45.45520 | 12.28750 | 1016 ft | 166 kts | 43° |
| 2026-05-04 13:06 | 45.46346 | 12.29813 | 790 ft | 152 kts | 44° |
| 2026-05-04 13:07 | 45.47088 | 12.30768 | 592 ft | 138 kts | 44° |
| 2026-05-04 13:07 | 45.47788 | 12.31669 | 432 ft | 135 kts | 44° |
| 2026-05-04 13:07 | 45.48494 | 12.32579 | 270 ft | 135 kts | 44° |
| 2026-05-04 13:07 | 45.49182 | 12.33465 | 95 ft | 134 kts | 44° |
| 2026-05-04 13:08 | 45.49864 | 12.34348 | 9 ft | 121 kts | 43° |
| 2026-05-04 13:08 | 45.50356 | 12.34988 | 9 ft | 72 kts | 41° |
| 2026-05-04 13:08 | 45.50608 | 12.35309 | 12 ft | 32 kts | 38° |
| 2026-05-04 13:08 | 45.50798 | 12.35426 | 11 ft | 19 kts | 15° |
| 2026-05-04 13:09 | 45.50911 | 12.35453 | 11 ft | 14 kts | 2° |
| 2026-05-04 13:09 | 45.50979 | 12.35375 | 10 ft | 15 kts | 265° |
| 2026-05-04 13:09 | 45.50950 | 12.35214 | 9 ft | 17 kts | 241° |
| 2026-05-04 13:09 | 45.50865 | 12.35093 | 9 ft | 17 kts | 219° |
| 2026-05-04 13:10 | 45.50775 | 12.34977 | 8 ft | 18 kts | 222° |
| 2026-05-04 13:10 | 45.50680 | 12.34855 | 9 ft | 17 kts | 221° |
| 2026-05-04 13:10 | 45.50624 | 12.34740 | 9 ft | 12 kts | 280° |
| 2026-05-04 13:10 | 45.50688 | 12.34652 | 8 ft | 13 kts | 318° |
| 2026-05-04 13:11 | 45.50758 | 12.34545 | 7 ft | 15 kts | 312° |
| 2026-05-04 13:11 | 45.50813 | 12.34452 | 7 ft | 8 kts | 292° |
| 2026-05-04 13:11 | 45.50800 | 12.34391 | 8 ft | 5 kts | 224° |
| 2026-05-04 13:11 | 45.50782 | 12.34368 | 9 ft | 0 kts | 221° |
| 2026-05-04 13:12 | 45.50780 | 12.34365 | 9 ft | 0 kts | 221° |